Terminal Aerodrome Forecast
Issued by NWS

Home | Current Version | Previous Version | Text Only | Print | Product List | Glossary On
Versions: 1 2 3 4 5 6 7 8 9 10 11 12 13 14 15 16
282
FTUS43 KMPX 241720
TAFRNH
TAF
KRNH 241720Z 2418/2518 30015G20KT P6SM VCSH SCT040 BKN060 BKN110
      TEMPO 2419/2422 5SM -SHRA OVC040
     FM250000 30012KT P6SM SCT130
     FM251000 28006KT P6SM SCT008 BKN015 BKN030
     FM251500 30012G18KT P6SM BKN020 BKN040=

USA.gov is the U.S. government's official web portal to all federal, state and local government web resources and services.